Time;durP1;ratioP1;P1;durP2;ratioP2;P2;SDS_P1;SDS_P2;PMS_P1;PMS_P2;Temp;Humidity;BMP_temperature;BMP_pressure;BME280_temperature;BME280_humidity;BME280_pressure;Samples;Min_cycle;Max_cycle;Signal;HPM_P1;HPM_P2
2023/06/24 00:00:38;;;;;;;2.10;1.05;;;;;;;18.31;nan;97140.94;5097697;28;20227;-68
2023/06/24 00:03:07;;;;;;;3.50;1.63;;;;;;;18.39;nan;97133.56;5098527;28;20223;-68
2023/06/24 00:05:33;;;;;;;3.15;1.77;;;;;;;18.31;nan;97131.09;5097879;28;21088;-69
2023/06/24 00:08:02;;;;;;;2.10;1.30;;;;;;;18.30;nan;97134.78;5097608;28;20214;-66
2023/06/24 00:10:28;;;;;;;3.17;1.52;;;;;;;18.36;nan;97134.78;5098200;28;20195;-68
2023/06/24 00:12:55;;;;;;;2.53;1.38;;;;;;;18.35;nan;97135.00;5098072;28;20230;-67
2023/06/24 00:15:22;;;;;;;1.13;0.90;;;;;;;18.24;nan;97140.94;5097456;28;20564;-67
2023/06/24 00:17:50;;;;;;;1.73;1.20;;;;;;;18.42;nan;97144.66;5098024;28;20207;-69
2023/06/24 00:20:17;;;;;;;2.78;1.17;;;;;;;18.37;nan;97148.97;5097745;28;20223;-68
2023/06/24 00:22:48;;;;;;;2.60;1.58;;;;;;;18.43;nan;97148.97;5097974;28;20223;-68
2023/06/24 00:25:15;;;;;;;2.67;1.48;;;;;;;18.51;nan;97137.28;5098252;28;20207;-68
2023/06/24 00:27:42;;;;;;;2.97;1.45;;;;;;;18.47;nan;97136.06;5097643;28;20651;-69
2023/06/24 00:30:10;;;;;;;3.70;2.05;;;;;;;18.38;nan;97137.28;5097765;28;20260;-68
2023/06/24 00:32:37;;;;;;;3.75;1.80;;;;;;;18.33;nan;97135.19;5097700;28;20249;-66
2023/06/24 00:35:06;;;;;;;3.33;1.67;;;;;;;18.34;nan;97142.19;5097981;28;20469;-69
2023/06/24 00:37:32;;;;;;;2.15;1.55;;;;;;;18.32;nan;97137.22;5096862;28;20256;-66
2023/06/24 00:39:58;;;;;;;2.70;1.25;;;;;;;18.37;nan;97144.44;5097921;28;20231;-69
2023/06/24 00:42:25;;;;;;;1.83;1.30;;;;;;;18.25;nan;97142.56;5097444;28;20223;-69
2023/06/24 00:44:52;;;;;;;3.10;1.55;;;;;;;18.33;nan;97150.41;5097502;28;20211;-67
2023/06/24 00:47:19;;;;;;;3.22;1.75;;;;;;;18.37;nan;97146.31;5097154;28;20207;-68
2023/06/24 00:49:45;;;;;;;6.90;2.00;;;;;;;18.28;nan;97142.19;5097162;28;20206;-66
2023/06/24 00:52:15;;;;;;;3.83;1.50;;;;;;;18.32;nan;97146.09;5097555;28;20216;-69
2023/06/24 00:54:42;;;;;;;1.60;1.40;;;;;;;18.36;nan;97142.78;5097772;28;20199;-68
2023/06/24 00:57:08;;;;;;;3.60;1.23;;;;;;;18.42;nan;97136.66;5098351;28;20223;-66
2023/06/24 00:59:36;;;;;;;2.42;1.35;;;;;;;18.36;nan;97136.63;5095892;28;20238;-66
2023/06/24 01:02:04;;;;;;;1.27;0.93;;;;;;;18.26;nan;97138.06;5096921;28;20269;-66
2023/06/24 01:04:32;;;;;;;5.40;1.58;;;;;;;18.27;nan;97134.38;5097701;28;20210;-66
2023/06/24 01:06:59;;;;;;;2.58;1.45;;;;;;;18.25;nan;97139.09;5096837;28;20203;-68
2023/06/24 01:09:28;;;;;;;2.95;1.58;;;;;;;18.36;nan;97140.13;5096007;28;20686;-67
2023/06/24 01:11:54;;;;;;;5.10;1.55;;;;;;;18.23;nan;97138.44;5097212;28;20223;-68
2023/06/24 01:14:23;;;;;;;5.82;1.70;;;;;;;18.26;nan;97132.72;5097554;28;20209;-68
2023/06/24 01:16:56;;;;;;;2.00;1.20;;;;;;;18.42;nan;97133.97;5096960;28;20297;-69
2023/06/24 01:19:54;;;;;;;4.28;2.00;;;;;;;18.49;nan;97131.31;5096673;28;21164;-69
2023/06/24 01:22:40;;;;;;;2.92;1.48;;;;;;;18.47;nan;97136.88;5096926;28;20241;-67
2023/06/24 01:25:30;;;;;;;2.70;1.65;;;;;;;18.33;nan;97145.06;5096972;28;20619;-67
2023/06/24 01:28:20;;;;;;;4.18;1.58;;;;;;;18.41;nan;97140.34;5096567;28;20687;-67
2023/06/24 01:31:25;;;;;;;6.53;2.17;;;;;;;18.42;nan;97139.31;5096431;28;20199;-67
2023/06/24 01:33:59;;;;;;;3.20;1.58;;;;;;;18.31;nan;97151.63;5096285;28;20582;-68
2023/06/24 01:36:27;;;;;;;1.85;1.38;;;;;;;18.33;nan;97147.72;5096796;28;20256;-69
2023/06/24 01:39:02;;;;;;;2.80;1.63;;;;;;;18.47;nan;97146.72;5096329;28;20195;-69
2023/06/24 01:41:33;;;;;;;4.15;2.20;;;;;;;18.32;nan;97143.41;5096238;28;20237;-69
2023/06/24 01:44:01;;;;;;;3.72;1.85;;;;;;;18.31;nan;97140.94;5097031;28;20199;-67
2023/06/24 01:46:30;;;;;;;4.70;1.80;;;;;;;18.34;nan;97139.53;5096401;28;20199;-67
2023/06/24 01:49:02;;;;;;;7.10;2.40;;;;;;;18.44;nan;97137.28;5095963;28;20706;-68
2023/06/24 01:51:31;;;;;;;6.70;2.17;;;;;;;18.26;nan;97135.41;5096680;28;20226;-68
2023/06/24 01:54:02;;;;;;;4.13;1.95;;;;;;;18.32;nan;97126.56;5096459;28;20296;-67
2023/06/24 01:56:30;;;;;;;5.47;2.22;;;;;;;18.43;nan;97124.94;5096603;28;20195;-69
2023/06/24 01:58:59;;;;;;;4.57;2.15;;;;;;;18.39;nan;97131.72;5096234;28;20221;-68
2023/06/24 02:01:26;;;;;;;2.75;1.73;;;;;;;18.31;nan;97125.75;5096093;28;20230;-67
2023/06/24 02:03:56;;;;;;;4.85;2.42;;;;;;;18.35;nan;97116.31;5096008;28;20210;-67
2023/06/24 02:06:25;;;;;;;3.40;2.00;;;;;;;18.35;nan;97113.63;5096626;28;20211;-68
2023/06/24 02:08:53;;;;;;;5.72;2.42;;;;;;;18.39;nan;97113.03;5097042;28;20207;-69
2023/06/24 02:11:22;;;;;;;2.75;1.75;;;;;;;18.36;nan;97112.63;5095610;28;20203;-69
2023/06/24 02:13:50;;;;;;;3.40;1.70;;;;;;;18.35;nan;97111.81;5096050;28;20215;-68
2023/06/24 02:16:17;;;;;;;6.10;2.60;;;;;;;18.36;nan;97116.09;5096256;28;20203;-67
2023/06/24 02:18:48;;;;;;;4.07;2.05;;;;;;;18.34;nan;97110.16;5096467;28;20210;-69
2023/06/24 02:21:19;;;;;;;4.97;1.80;;;;;;;18.39;nan;97102.38;5095873;28;20230;-66
2023/06/24 02:23:47;;;;;;;5.45;2.10;;;;;;;18.35;nan;97102.97;5099263;28;20203;-67
2023/06/24 02:26:14;;;;;;;7.65;2.47;;;;;;;18.22;nan;97094.94;5099958;28;20199;-68
2023/06/24 02:28:41;;;;;;;3.25;1.75;;;;;;;18.31;nan;97092.91;5099798;27;20203;-67
2023/06/24 02:34:29;;;;;;;6.50;2.05;;;;;;;18.21;nan;97093.31;5097236;28;20198;-68
2023/06/24 02:36:57;;;;;;;3.47;1.65;;;;;;;18.25;nan;97089.19;5099792;28;20207;-66
2023/06/24 02:39:24;;;;;;;5.75;2.40;;;;;;;18.07;nan;97091.59;5099670;28;20203;-69
2023/06/24 02:41:51;;;;;;;3.80;1.63;;;;;;;18.05;nan;97092.81;5099804;28;20227;-68
2023/06/24 02:44:17;;;;;;;4.32;2.25;;;;;;;17.97;nan;97093.03;5099620;28;20207;-67
2023/06/24 02:46:46;;;;;;;2.75;1.55;;;;;;;18.01;nan;97091.59;5100074;28;20207;-69
2023/06/24 02:49:17;;;;;;;6.32;3.35;;;;;;;17.96;nan;97089.53;5099576;28;20218;-68
2023/06/24 02:51:45;;;;;;;3.28;2.08;;;;;;;17.90;nan;97097.53;5099365;28;20706;-68
2023/06/24 02:54:14;;;;;;;2.53;1.60;;;;;;;17.97;nan;97098.34;5099624;28;20199;-68
2023/06/24 02:56:44;;;;;;;4.40;2.45;;;;;;;17.92;nan;97103.47;5100159;28;20207;-69
2023/06/24 02:59:11;;;;;;;3.65;1.85;;;;;;;17.78;nan;97107.13;5099246;28;20230;-68
2023/06/24 03:01:39;;;;;;;2.92;1.70;;;;;;;17.79;nan;97114.94;5099064;28;20226;-67
2023/06/24 03:04:06;;;;;;;3.60;1.63;;;;;;;17.80;nan;97113.09;5099601;28;20209;-69
2023/06/24 03:06:36;;;;;;;3.75;1.70;;;;;;;17.77;nan;97110.81;5099592;28;20206;-68
2023/06/24 03:09:03;;;;;;;3.60;1.90;;;;;;;17.75;nan;97103.00;5099189;28;20210;-67
2023/06/24 03:11:31;;;;;;;3.45;2.20;;;;;;;17.69;nan;97105.66;5099876;28;20692;-65
2023/06/24 03:13:58;;;;;;;7.57;1.95;;;;;;;17.51;nan;97099.22;5099021;28;20211;-68
2023/06/24 03:16:25;;;;;;;1.98;1.15;;;;;;;17.50;nan;97117.06;5099189;28;20200;-69
2023/06/24 03:18:51;;;;;;;4.65;1.88;;;;;;;17.49;nan;97117.25;5100027;27;20208;-68
2023/06/24 03:21:18;;;;;;;2.47;1.50;;;;;;;17.48;nan;97121.78;5099017;28;20223;-66
2023/06/24 03:23:44;;;;;;;4.50;2.13;;;;;;;17.39;nan;97120.28;5098532;28;20214;-66
2023/06/24 03:26:11;;;;;;;2.55;2.05;;;;;;;17.35;nan;97127.03;5099704;28;20245;-66
2023/06/24 03:28:39;;;;;;;3.40;1.65;;;;;;;17.40;nan;97124.59;5098431;28;20237;-68
2023/06/24 03:31:05;;;;;;;3.08;1.52;;;;;;;17.33;nan;97134.41;5098665;28;21109;-68
2023/06/24 03:33:32;;;;;;;2.38;1.63;;;;;;;17.36;nan;97138.50;5099150;27;20581;-69
2023/06/24 03:35:58;;;;;;;3.60;1.95;;;;;;;17.37;nan;97140.97;5098499;28;20313;-66
2023/06/24 03:38:25;;;;;;;4.32;2.15;;;;;;;17.34;nan;97136.03;5098248;28;20263;-68
2023/06/24 03:40:51;;;;;;;4.47;1.73;;;;;;;17.36;nan;97142.00;5099142;28;20227;-69
2023/06/24 03:43:18;;;;;;;2.63;1.55;;;;;;;17.30;nan;97140.13;5098827;28;20222;-67
2023/06/24 03:45:46;;;;;;;4.28;2.58;;;;;;;17.42;nan;97143.88;5098647;28;20207;-67
2023/06/24 03:48:12;;;;;;;9.38;3.25;;;;;;;17.31;nan;97143.59;5098604;28;20204;-67
2023/06/24 03:50:38;;;;;;;3.47;1.73;;;;;;;17.24;nan;97146.22;5098821;28;20599;-67
2023/06/24 03:53:05;;;;;;;5.50;2.70;;;;;;;17.19;nan;97155.81;5098307;28;20227;-67
2023/06/24 03:55:31;;;;;;;5.80;2.10;;;;;;;17.13;nan;97153.91;5098735;28;20203;-69
2023/06/24 03:57:58;;;;;;;4.80;2.33;;;;;;;17.15;nan;97152.69;5098099;28;20238;-69
2023/06/24 04:00:25;;;;;;;2.85;1.67;;;;;;;17.13;nan;97156.56;5098673;28;20210;-68
2023/06/24 04:02:53;;;;;;;3.00;1.88;;;;;;;17.26;nan;97152.19;5098402;28;20291;-69
2023/06/24 04:05:20;;;;;;;4.43;1.80;;;;;;;17.20;nan;97160.94;5098691;28;20268;-68
2023/06/24 04:07:46;;;;;;;3.85;2.25;;;;;;;17.21;nan;97159.91;5097974;28;20234;-68
2023/06/24 04:10:14;;;;;;;5.43;2.75;;;;;;;17.26;nan;97160.19;5098273;28;20211;-68
2023/06/24 04:12:40;;;;;;;3.85;2.30;;;;;;;17.25;nan;97171.84;5098273;28;20223;-69
2023/06/24 04:15:08;;;;;;;2.72;1.60;;;;;;;17.44;nan;97165.81;5094231;27;20206;-68
2023/06/24 04:17:34;;;;;;;4.85;1.83;;;;;;;17.38;nan;97163.94;5097203;28;20206;-69
2023/06/24 04:20:04;;;;;;;2.95;1.67;;;;;;;17.47;nan;97170.75;5098197;27;20205;-66
2023/06/24 04:22:31;;;;;;;3.85;1.70;;;;;;;17.48;nan;97176.94;5096879;28;20223;-69
2023/06/24 04:24:57;;;;;;;3.50;1.88;;;;;;;17.40;nan;97175.25;5096970;28;20666;-68
2023/06/24 04:27:24;;;;;;;2.95;1.90;;;;;;;17.55;nan;97172.44;5097438;28;20226;-67
2023/06/24 04:29:50;;;;;;;3.08;1.80;;;;;;;17.58;nan;97172.03;5097603;28;20199;-68
2023/06/24 04:32:16;;;;;;;3.58;1.70;;;;;;;17.70;nan;97173.94;5097529;28;20222;-69
2023/06/24 04:34:43;;;;;;;2.08;1.20;;;;;;;17.70;nan;97181.94;5097449;28;20222;-69
2023/06/24 04:37:11;;;;;;;2.88;1.52;;;;;;;17.90;nan;97178.34;5098064;28;20210;-68
2023/06/24 04:39:38;;;;;;;2.70;1.52;;;;;;;17.81;nan;97178.72;5097164;28;20238;-66
2023/06/24 04:42:05;;;;;;;3.60;1.50;;;;;;;17.88;nan;97179.56;5097424;28;21060;-67
2023/06/24 04:44:32;;;;;;;4.38;2.20;;;;;;;17.72;nan;97180.72;5097679;28;20203;-69
2023/06/24 04:46:58;;;;;;;2.78;1.55;;;;;;;17.51;nan;97180.00;5096739;28;20214;-67
2023/06/24 04:49:24;;;;;;;3.28;1.42;;;;;;;17.76;nan;97186.50;5097054;28;20581;-69
2023/06/24 04:51:51;;;;;;;2.70;1.40;;;;;;;17.85;nan;97187.97;5097368;28;20222;-68
2023/06/24 04:54:19;;;;;;;2.22;1.27;;;;;;;18.06;nan;97183.34;5097671;28;20572;-68
2023/06/24 04:56:48;;;;;;;2.03;1.50;;;;;;;18.05;nan;97186.19;5097167;28;20289;-68
2023/06/24 04:59:14;;;;;;;2.88;1.17;;;;;;;18.05;nan;97181.69;5096783;28;20240;-67
2023/06/24 05:01:41;;;;;;;2.55;1.77;;;;;;;18.18;nan;97181.75;5097144;28;20855;-67
2023/06/24 05:04:07;;;;;;;2.30;1.40;;;;;;;18.19;nan;97182.56;5097117;28;20211;-68
2023/06/24 05:06:34;;;;;;;3.25;1.45;;;;;;;18.25;nan;97181.78;5097414;27;20204;-68
2023/06/24 05:09:00;;;;;;;2.33;1.27;;;;;;;18.32;nan;97185.28;5096796;28;21198;-66
2023/06/24 05:11:28;;;;;;;4.38;1.50;;;;;;;18.51;nan;97182.66;5097109;28;20392;-66
2023/06/24 05:13:54;;;;;;;3.50;1.45;;;;;;;18.66;nan;97183.28;5097067;28;20199;-67
2023/06/24 05:16:22;;;;;;;2.20;1.40;;;;;;;18.56;nan;97194.38;5096185;28;20203;-66
2023/06/24 05:18:48;;;;;;;5.32;2.08;;;;;;;18.67;nan;97203.63;5097191;28;20659;-68
2023/06/24 05:21:14;;;;;;;4.28;2.00;;;;;;;18.77;nan;97202.19;5096876;28;20207;-68
2023/06/24 05:23:41;;;;;;;2.92;1.70;;;;;;;18.55;nan;97203.41;5096368;28;20203;-67
2023/06/24 05:26:07;;;;;;;3.58;1.98;;;;;;;18.73;nan;97200.97;5097927;28;20208;-68
2023/06/24 05:28:35;;;;;;;3.75;1.65;;;;;;;18.89;nan;97205.91;5096196;28;20582;-67
2023/06/24 05:31:02;;;;;;;4.07;2.08;;;;;;;18.63;nan;97205.06;5096251;28;20214;-66
2023/06/24 05:33:28;;;;;;;2.70;1.70;;;;;;;18.71;nan;97211.03;5096708;28;20234;-66
2023/06/24 05:35:55;;;;;;;1.92;1.10;;;;;;;18.66;nan;97205.47;5097215;28;20671;-67
2023/06/24 05:38:21;;;;;;;3.80;1.52;;;;;;;18.71;nan;97197.69;5096701;28;20230;-67
2023/06/24 05:40:48;;;;;;;1.85;1.30;;;;;;;18.54;nan;97195.59;5096398;28;20222;-68
2023/06/24 05:43:14;;;;;;;1.58;1.17;;;;;;;18.39;nan;97187.78;5096195;28;20707;-68
2023/06/24 05:45:42;;;;;;;4.43;1.58;;;;;;;18.67;nan;97193.78;5096528;28;20210;-67
2023/06/24 05:48:08;;;;;;;3.58;1.40;;;;;;;18.58;nan;97197.69;5096223;28;20206;-68
2023/06/24 05:50:35;;;;;;;1.83;1.42;;;;;;;18.44;nan;97190.66;5096623;28;20212;-68
2023/06/24 05:53:01;;;;;;;2.55;1.50;;;;;;;18.40;nan;97194.72;5096547;28;20820;-68
2023/06/24 05:55:28;;;;;;;3.63;1.77;;;;;;;18.68;nan;97192.72;5096390;28;21230;-68
2023/06/24 05:57:54;;;;;;;3.17;1.67;;;;;;;18.96;nan;97193.38;5097204;28;20590;-67
2023/06/24 06:00:21;;;;;;;3.92;1.80;;;;;;;19.08;nan;97195.25;5100704;28;20667;-68
2023/06/24 06:02:48;;;;;;;2.28;1.33;;;;;;;19.12;nan;97191.13;5100419;28;20226;-68
2023/06/24 06:05:15;;;;;;;2.65;1.45;;;;;;;19.06;nan;97191.16;5101112;28;20207;-67
2023/06/24 06:07:43;;;;;;;3.45;2.05;;;;;;;19.06;nan;97191.94;5100121;28;20210;-68
2023/06/24 06:10:10;;;;;;;3.92;1.70;;;;;;;19.28;nan;97193.38;5100054;28;20209;-68
2023/06/24 06:12:37;;;;;;;4.00;2.00;;;;;;;19.33;nan;97200.78;5099473;27;20219;-68
2023/06/24 06:15:04;;;;;;;2.55;1.20;;;;;;;19.51;nan;97191.06;5099741;28;20199;-69
2023/06/24 06:17:30;;;;;;;2.58;1.63;;;;;;;19.55;nan;97194.16;5098920;28;20678;-68
2023/06/24 06:19:58;;;;;;;4.28;2.08;;;;;;;19.65;nan;97190.00;5099733;28;20206;-68
2023/06/24 06:22:24;;;;;;;3.22;1.73;;;;;;;19.72;nan;97185.47;5099554;28;21514;-68
2023/06/24 06:24:51;;;;;;;5.72;1.90;;;;;;;19.85;nan;97188.91;5099973;28;20570;-69
2023/06/24 06:27:17;;;;;;;4.72;1.80;;;;;;;19.70;nan;97185.69;5099302;28;20219;-68
2023/06/24 06:29:44;;;;;;;2.00;1.48;;;;;;;19.93;nan;97188.69;5099772;28;20203;-69
2023/06/24 06:32:10;;;;;;;2.90;1.40;;;;;;;20.00;nan;97181.50;5100081;28;20309;-68
2023/06/24 06:34:37;;;;;;;2.95;1.50;;;;;;;20.08;nan;97183.09;5100464;28;20207;-68
2023/06/24 06:37:05;;;;;;;3.45;1.77;;;;;;;20.15;nan;97189.25;5100148;28;20205;-69
2023/06/24 06:39:32;;;;;;;2.80;1.48;;;;;;;19.96;nan;97188.31;5098965;28;20199;-67
2023/06/24 06:41:58;;;;;;;1.85;1.30;;;;;;;20.11;nan;97194.22;5100638;27;20702;-68
2023/06/24 06:44:25;;;;;;;2.13;1.27;;;;;;;20.07;nan;97197.50;5099615;27;20202;-69
2023/06/24 06:46:51;;;;;;;2.55;1.30;;;;;;;20.08;nan;97194.63;5099995;28;20218;-67
2023/06/24 06:49:18;;;;;;;2.10;1.40;;;;;;;19.96;nan;97190.13;5100205;27;20313;-68
2023/06/24 06:51:44;;;;;;;1.45;1.05;;;;;;;20.19;nan;97196.66;5100005;28;20218;-68
2023/06/24 06:54:12;;;;;;;3.35;1.50;;;;;;;20.39;nan;97192.84;5099789;27;20203;-68
2023/06/24 06:56:39;;;;;;;4.13;1.48;;;;;;;20.32;nan;97189.34;5099367;28;20655;-68
2023/06/24 06:59:06;;;;;;;2.85;1.52;;;;;;;20.47;nan;97191.75;5099120;28;20211;-69
2023/06/24 07:01:32;;;;;;;6.95;1.20;;;;;;;20.77;nan;97190.16;5099542;28;20230;-69
2023/06/24 07:03:58;;;;;;;2.22;1.23;;;;;;;20.72;nan;97188.09;5099223;28;20210;-69
2023/06/24 07:06:25;;;;;;;2.70;1.48;;;;;;;20.92;nan;97186.91;5100104;28;20195;-66
2023/06/24 07:08:51;;;;;;;2.70;1.50;;;;;;;20.87;nan;97181.41;5098495;28;20591;-68
2023/06/24 07:11:19;;;;;;;3.28;1.77;;;;;;;21.07;nan;97179.38;5099139;28;20203;-66
2023/06/24 07:13:46;;;;;;;7.65;2.53;;;;;;;21.33;nan;97184.50;5099291;28;20210;-67
2023/06/24 07:16:13;;;;;;;3.13;1.17;;;;;;;21.40;nan;97184.44;5098904;28;20226;-67
2023/06/24 07:18:39;;;;;;;2.95;1.90;;;;;;;21.42;nan;97173.28;5097989;28;20199;-68
2023/06/24 07:21:05;;;;;;;2.65;1.27;;;;;;;21.42;nan;97182.38;5099441;27;20210;-68
2023/06/24 07:23:32;;;;;;;2.80;1.40;;;;;;;21.45;nan;97180.88;5098948;27;20231;-68
2023/06/24 07:25:58;;;;;;;3.40;1.20;;;;;;;21.51;nan;97184.56;5098742;28;20203;-68
2023/06/24 07:28:26;;;;;;;3.45;1.48;;;;;;;21.55;nan;97183.91;5098076;28;20203;-68
2023/06/24 07:30:53;;;;;;;2.08;1.30;;;;;;;21.29;nan;97185.97;5098099;28;20199;-68
2023/06/24 07:33:20;;;;;;;2.28;1.30;;;;;;;21.62;nan;97181.16;5098626;27;20215;-67
2023/06/24 07:35:46;;;;;;;1.85;1.20;;;;;;;21.29;nan;97183.31;5098595;28;20691;-68
2023/06/24 07:38:13;;;;;;;2.53;1.50;;;;;;;21.55;nan;97180.41;5098116;28;20203;-67
2023/06/24 07:40:40;;;;;;;2.28;1.30;;;;;;;21.62;nan;97176.59;5097735;28;20679;-68
2023/06/24 07:43:06;;;;;;;3.47;2.15;;;;;;;21.56;nan;97179.34;5098097;28;20277;-68
2023/06/24 07:45:34;;;;;;;6.68;2.55;;;;;;;21.73;nan;97183.13;5097481;28;20199;-68
2023/06/24 07:48:01;;;;;;;1.52;1.02;;;;;;;21.72;nan;97181.47;5097444;28;20206;-68
2023/06/24 07:50:27;;;;;;;3.00;1.35;;;;;;;22.06;nan;97184.38;5098522;28;20199;-68
2023/06/24 07:52:53;;;;;;;3.75;1.60;;;;;;;21.77;nan;97181.63;5098366;28;20417;-67
2023/06/24 07:55:20;;;;;;;2.35;1.30;;;;;;;21.84;nan;97188.56;5097979;28;20575;-67
2023/06/24 07:57:47;;;;;;;4.43;1.42;;;;;;;22.06;nan;97185.16;5097392;28;20996;-68
2023/06/24 08:00:15;;;;;;;2.85;1.00;;;;;;;22.21;nan;97190.16;5098825;28;20199;-68
2023/06/24 08:02:43;;;;;;;2.72;1.42;;;;;;;22.22;nan;97187.25;5097582;28;20223;-67
2023/06/24 08:05:09;;;;;;;1.85;1.23;;;;;;;22.12;nan;97189.66;5098000;28;20199;-68
2023/06/24 08:07:39;;;;;;;3.47;1.50;;;;;;;22.26;nan;97184.94;5097164;28;20227;-67
2023/06/24 08:10:08;;;;;;;2.78;1.55;;;;;;;22.40;nan;97192.63;5098061;28;20612;-67
2023/06/24 08:12:34;;;;;;;2.22;1.40;;;;;;;22.49;nan;97191.25;5097413;28;20708;-67
2023/06/24 08:15:01;;;;;;;5.82;1.83;;;;;;;22.47;nan;97193.34;5095130;28;20610;-68
2023/06/24 08:17:27;;;;;;;2.35;1.23;;;;;;;22.57;nan;97196.31;5096012;28;20781;-68
2023/06/24 08:19:55;;;;;;;3.95;1.67;;;;;;;22.34;nan;97188.16;5097013;28;20594;-69
2023/06/24 08:22:22;;;;;;;2.70;1.45;;;;;;;22.16;nan;97188.16;5096458;28;20265;-67
2023/06/24 08:24:48;;;;;;;4.38;1.80;;;;;;;22.19;nan;97186.88;5097883;28;20203;-67
2023/06/24 08:27:15;;;;;;;3.20;1.50;;;;;;;22.39;nan;97187.44;5096884;28;20191;-68
2023/06/24 08:29:41;;;;;;;2.33;0.98;;;;;;;22.40;nan;97184.56;5096656;28;20215;-68
2023/06/24 08:32:08;;;;;;;3.45;1.70;;;;;;;22.35;nan;97189.81;5097521;28;20215;-67
2023/06/24 08:34:35;;;;;;;3.00;1.48;;;;;;;22.45;nan;97184.69;5097309;28;20668;-67
2023/06/24 08:37:03;;;;;;;2.72;1.48;;;;;;;22.89;nan;97182.38;5097074;28;20210;-67
2023/06/24 08:39:29;;;;;;;3.80;1.88;;;;;;;22.76;nan;97187.16;5097369;28;20207;-67
2023/06/24 08:41:56;;;;;;;2.60;1.65;;;;;;;23.03;nan;97175.78;5095831;28;20219;-67
2023/06/24 08:44:22;;;;;;;3.88;1.73;;;;;;;23.29;nan;97172.63;5096453;28;20222;-68
2023/06/24 08:46:49;;;;;;;2.33;1.20;;;;;;;23.59;nan;97179.53;5096250;28;20199;-67
2023/06/24 08:49:29;;;;;;;2.45;1.60;;;;;;;24.26;nan;97171.59;5095103;28;20199;-69
2023/06/24 08:52:01;;;;;;;4.25;2.10;;;;;;;24.34;nan;97179.31;5094991;27;20288;-66
2023/06/24 08:54:29;;;;;;;5.13;2.08;;;;;;;24.59;nan;97167.16;5097147;27;20191;-68
2023/06/24 08:56:56;;;;;;;3.75;2.13;;;;;;;24.56;nan;97172.19;5096108;27;20548;-67
2023/06/24 08:59:22;;;;;;;2.28;1.33;;;;;;;24.65;nan;97170.75;5096407;27;20215;-68
2023/06/24 09:01:49;;;;;;;3.28;1.30;;;;;;;24.79;nan;97169.41;5097573;28;20223;-68
2023/06/24 09:04:15;;;;;;;3.13;1.85;;;;;;;24.69;nan;97178.13;5097038;28;20218;-67
2023/06/24 09:06:42;;;;;;;2.40;1.80;;;;;;;24.31;nan;97173.56;5097008;28;20214;-67
2023/06/24 09:09:18;;;;;;;5.00;1.58;;;;;;;24.70;nan;97168.97;5095407;28;20202;-67
2023/06/24 09:11:52;;;;;;;2.80;1.48;;;;;;;24.56;nan;97170.31;5096871;27;20223;-69
2023/06/24 09:14:18;;;;;;;3.80;1.75;;;;;;;24.51;nan;97168.59;5096938;28;20223;-68
2023/06/24 09:16:52;;;;;;;2.38;1.52;;;;;;;24.58;nan;97168.22;5096381;28;20206;-67
2023/06/24 09:19:21;;;;;;;6.50;1.73;;;;;;;24.38;nan;97171.56;5096568;28;20609;-69
2023/06/24 09:21:48;;;;;;;4.85;2.42;;;;;;;24.51;nan;97157.81;5097269;28;20226;-68
2023/06/24 09:24:14;;;;;;;2.65;1.60;;;;;;;24.50;nan;97153.50;5096369;28;20215;-68
2023/06/24 09:26:44;;;;;;;3.20;1.75;;;;;;;24.88;nan;97157.16;5096941;28;20203;-67
2023/06/24 09:29:13;;;;;;;3.33;1.70;;;;;;;25.14;nan;97151.97;5095773;28;20214;-68
2023/06/24 09:31:47;;;;;;;3.10;1.65;;;;;;;24.90;nan;97145.06;5095313;28;20235;-69
2023/06/24 09:34:14;;;;;;;2.25;1.45;;;;;;;24.72;nan;97156.06;5094440;27;20194;-67
2023/06/24 09:36:43;;;;;;;3.40;1.65;;;;;;;25.08;nan;97144.84;5096479;28;20227;-70
2023/06/24 09:39:10;;;;;;;4.53;1.80;;;;;;;24.99;nan;97151.69;5096174;28;21169;-69
2023/06/24 09:41:37;;;;;;;4.43;1.98;;;;;;;25.03;nan;97147.44;5095982;28;20264;-68
2023/06/24 09:44:08;;;;;;;3.22;1.63;;;;;;;24.79;nan;97143.25;5095017;28;20982;-68
2023/06/24 09:46:37;;;;;;;7.15;2.30;;;;;;;24.29;nan;97143.38;5094281;28;20203;-71
2023/06/24 09:49:04;;;;;;;5.15;1.90;;;;;;;23.88;nan;97146.31;5093187;28;20199;-69
2023/06/24 09:51:33;;;;;;;2.67;1.83;;;;;;;23.71;nan;97149.94;5093370;28;20223;-70
2023/06/24 09:53:59;;;;;;;3.00;1.83;;;;;;;23.62;nan;97143.25;5093485;28;20206;-69
2023/06/24 09:56:26;;;;;;;4.70;1.88;;;;;;;23.45;nan;97142.34;5093426;28;20198;-71
2023/06/24 09:58:53;;;;;;;3.55;1.90;;;;;;;23.47;nan;97149.13;5093325;28;20664;-71
2023/06/24 10:01:19;;;;;;;2.47;1.40;;;;;;;23.87;nan;97133.88;5092233;28;20199;-71
2023/06/24 10:03:48;;;;;;;4.55;1.92;;;;;;;24.03;nan;97135.81;5094059;28;20655;-69
2023/06/24 10:06:14;;;;;;;3.35;1.90;;;;;;;24.38;nan;97136.53;5094126;28;20200;-71
2023/06/24 10:08:41;;;;;;;2.35;1.70;;;;;;;24.57;nan;97128.03;5093587;28;21439;-71
2023/06/24 10:11:07;;;;;;;4.93;1.63;;;;;;;25.04;nan;97127.50;5094258;28;20199;-70
2023/06/24 10:13:35;;;;;;;4.40;1.80;;;;;;;25.19;nan;97130.47;5093972;28;20199;-70
2023/06/24 10:16:01;;;;;;;3.10;1.83;;;;;;;25.20;nan;97121.28;5094567;28;21257;-71
2023/06/24 10:18:36;;;;;;;3.95;2.00;;;;;;;25.45;nan;97119.78;5093165;28;20308;-69
2023/06/24 10:21:04;;;;;;;2.97;1.90;;;;;;;25.29;nan;97111.72;5094303;28;20203;-71
2023/06/24 10:23:39;;;;;;;3.38;2.13;;;;;;;25.46;nan;97107.13;5094949;28;20227;-70
2023/06/24 10:26:08;;;;;;;5.78;1.85;;;;;;;26.17;nan;97102.38;5093908;28;20205;-70
2023/06/24 10:29:08;;;;;;;4.57;2.10;;;;;;;26.33;nan;97101.50;5093848;28;20199;-68
2023/06/24 10:31:55;;;;;;;4.32;2.03;;;;;;;26.37;nan;97108.84;5094329;28;20222;-68
2023/06/24 10:34:27;;;;;;;4.10;1.95;;;;;;;26.03;nan;97101.13;5094119;28;20225;-68
2023/06/24 10:36:56;;;;;;;2.60;1.63;;;;;;;25.74;nan;97094.31;5094855;28;20206;-68
2023/06/24 10:39:56;;;;;;;3.35;2.10;;;;;;;24.95;nan;97093.91;5093431;28;20207;-70
2023/06/24 10:42:39;;;;;;;2.97;1.77;;;;;;;25.28;nan;97091.22;5094004;28;20249;-70
2023/06/24 10:45:20;;;;;;;4.25;2.08;;;;;;;25.41;nan;97096.25;5096896;28;20199;-68
2023/06/24 10:47:48;;;;;;;2.90;1.88;;;;;;;25.56;nan;97089.19;5096967;28;20202;-70
2023/06/24 10:50:16;;;;;;;3.40;1.80;;;;;;;25.97;nan;97089.47;5097439;28;20737;-70
2023/06/24 10:52:46;;;;;;;1.73;1.48;;;;;;;26.22;nan;97088.94;5097575;28;20219;-71
2023/06/24 10:55:15;;;;;;;3.50;1.58;;;;;;;26.46;nan;97080.28;5096236;28;20207;-70
2023/06/24 10:57:41;;;;;;;2.67;1.55;;;;;;;26.47;nan;97081.94;5096969;28;20235;-69
2023/06/24 11:00:09;;;;;;;3.38;2.00;;;;;;;26.58;nan;97083.69;5097453;28;20280;-67
2023/06/24 11:02:36;;;;;;;2.45;1.60;;;;;;;26.83;nan;97075.78;5097845;28;20215;-68
2023/06/24 11:05:04;;;;;;;3.28;1.67;;;;;;;26.46;nan;97074.88;5095777;28;20223;-70
2023/06/24 11:07:34;;;;;;;4.55;1.70;;;;;;;25.56;nan;97066.75;5097035;28;21222;-68
2023/06/24 11:10:05;;;;;;;2.58;1.40;;;;;;;25.19;nan;97057.63;5097828;28;20207;-68
2023/06/24 11:12:32;;;;;;;2.97;1.33;;;;;;;25.61;nan;97058.72;5097296;28;20255;-69
2023/06/24 11:15:00;;;;;;;3.20;1.45;;;;;;;25.85;nan;97063.66;5097608;28;20207;-70
2023/06/24 11:17:27;;;;;;;1.48;1.10;;;;;;;26.04;nan;97065.78;5097874;28;20214;-70
2023/06/24 11:19:55;;;;;;;2.40;1.35;;;;;;;26.52;nan;97057.66;5098572;28;20579;-70
2023/06/24 11:22:22;;;;;;;2.95;1.10;;;;;;;26.55;nan;97046.31;5098592;28;20348;-69
2023/06/24 11:24:49;;;;;;;2.08;1.20;;;;;;;26.57;nan;97053.09;5097544;28;20230;-71
2023/06/24 11:27:17;;;;;;;1.80;1.13;;;;;;;26.61;nan;97046.09;5098501;27;20218;-68
2023/06/24 11:29:45;;;;;;;2.90;1.30;;;;;;;27.01;nan;97035.66;5097462;28;20760;-70
2023/06/24 11:32:12;;;;;;;1.52;1.08;;;;;;;26.43;nan;97042.16;5097414;28;20780;-69
2023/06/24 11:34:39;;;;;;;2.42;1.15;;;;;;;26.68;nan;97040.47;5097944;28;20705;-69
2023/06/24 11:37:12;;;;;;;2.67;1.38;;;;;;;27.18;nan;97026.28;5099101;27;20211;-69
2023/06/24 11:39:39;;;;;;;3.67;1.20;;;;;;;27.19;nan;97027.91;5097122;28;20202;-69
2023/06/24 11:42:07;;;;;;;2.42;1.33;;;;;;;26.98;nan;97024.53;5097048;28;20219;-67
2023/06/24 11:44:36;;;;;;;2.15;1.10;;;;;;;27.25;nan;97026.03;5098369;28;20222;-68
2023/06/24 11:47:06;;;;;;;2.38;1.08;;;;;;;27.63;nan;97018.41;5097685;27;20207;-69
2023/06/24 11:49:33;;;;;;;1.95;1.27;;;;;;;26.96;nan;97021.25;5097625;28;20585;-69
2023/06/24 11:51:59;;;;;;;4.10;1.50;;;;;;;27.43;nan;97012.06;5097151;28;20223;-69
2023/06/24 11:54:26;;;;;;;1.58;0.95;;;;;;;26.77;nan;97010.00;5097311;27;20192;-67
2023/06/24 11:56:53;;;;;;;1.85;1.08;;;;;;;27.45;nan;97013.44;5096708;28;20305;-69
2023/06/24 11:59:21;;;;;;;1.73;1.10;;;;;;;27.25;nan;97004.38;5097062;28;20218;-69